Time;durP1;ratioP1;P1;durP2;ratioP2;P2;SDS_P1;SDS_P2;PMS_P1;PMS_P2;Temp;Humidity;BMP_temperature;BMP_pressure;BME280_temperature;BME280_humidity;BME280_pressure;Samples;Min_cycle;Max_cycle;Signal;HPM_P1;HPM_P2
2023/08/05 00:00:47;;;;;;;4.70;3.40;;;;;;;20.32;78.92;97448.51;107294;1274;24199;-80
2023/08/05 00:03:26;;;;;;;7.90;3.70;;;;;;;20.39;78.93;97439.70;107285;1276;22508;-82
2023/08/05 00:05:54;;;;;;;6.00;4.00;;;;;;;20.41;78.75;97436.66;107190;1276;22538;-79
2023/08/05 00:08:24;;;;;;;7.40;3.90;;;;;;;20.42;78.64;97430.58;107247;1276;25399;-79
2023/08/05 00:10:53;;;;;;;6.20;4.00;;;;;;;20.39;78.40;97428.59;107288;1276;22521;-79
2023/08/05 00:13:21;;;;;;;5.40;3.90;;;;;;;20.35;78.36;97421.42;107217;1276;22580;-79
2023/08/05 00:15:50;;;;;;;4.60;3.70;;;;;;;20.29;78.22;97424.10;107248;1276;22567;-79
2023/08/05 00:18:18;;;;;;;4.70;3.30;;;;;;;20.26;78.34;97428.05;107311;1276;22521;-79
2023/08/05 00:20:49;;;;;;;5.90;3.70;;;;;;;20.27;78.42;97427.37;107241;1276;22549;-80
2023/08/05 00:23:17;;;;;;;6.60;4.10;;;;;;;20.27;78.43;97423.45;107199;1276;22522;-79
2023/08/05 00:25:46;;;;;;;7.80;4.30;;;;;;;20.23;78.33;97429.98;107232;1276;25343;-80
2023/08/05 00:28:14;;;;;;;5.10;3.30;;;;;;;20.15;78.47;97436.14;107236;1276;202915;-79
2023/08/05 00:30:41;;;;;;;6.60;3.70;;;;;;;20.13;78.32;97429.94;107214;1276;22518;-79
2023/08/05 00:33:10;;;;;;;7.90;3.70;;;;;;;20.09;78.35;97420.66;107104;1276;25386;-79
2023/08/05 00:35:38;;;;;;;7.60;3.90;;;;;;;20.04;78.52;97413.73;107224;1276;22608;-79
2023/08/05 00:38:06;;;;;;;5.80;3.30;;;;;;;20.01;78.64;97413.15;107239;1276;22704;-78
2023/08/05 00:40:34;;;;;;;5.30;3.80;;;;;;;20.03;78.77;97421.70;107056;1276;25253;-81
2023/08/05 00:43:02;;;;;;;5.80;4.00;;;;;;;20.06;78.80;97424.54;107248;1276;22574;-80
2023/08/05 00:45:31;;;;;;;6.70;3.60;;;;;;;20.08;78.74;97427.84;107081;1276;22577;-80
2023/08/05 00:47:59;;;;;;;5.00;3.80;;;;;;;20.09;78.80;97423.33;107669;1276;22524;-84
2023/08/05 00:50:29;;;;;;;6.30;3.30;;;;;;;20.10;78.88;97405.20;107273;1268;22525;-84
2023/08/05 00:52:59;;;;;;;5.50;3.70;;;;;;;20.08;78.98;97407.60;107194;1276;22569;-83
2023/08/05 00:55:27;;;;;;;16.70;5.00;;;;;;;20.06;79.01;97415.63;107170;1276;22528;-82
2023/08/05 00:57:56;;;;;;;6.50;4.00;;;;;;;19.96;79.37;97408.71;107191;1269;22542;-85
2023/08/05 01:00:24;;;;;;;6.50;3.50;;;;;;;19.82;79.29;97404.87;107218;1276;25098;-84
2023/08/05 01:02:52;;;;;;;6.20;3.90;;;;;;;19.76;79.35;97413.93;107256;1276;25311;-84
2023/08/05 01:05:23;;;;;;;7.20;4.40;;;;;;;19.70;79.64;97415.02;107246;1276;25275;-83
2023/08/05 01:07:51;;;;;;;6.80;4.00;;;;;;;19.70;80.23;97403.92;106971;1276;25459;-85
2023/08/05 01:10:19;;;;;;;5.10;3.40;;;;;;;19.69;80.01;97400.24;107235;1276;22744;-84
2023/08/05 01:12:47;;;;;;;5.40;3.70;;;;;;;19.67;80.30;97398.42;107258;1276;25245;-84
2023/08/05 01:15:15;;;;;;;8.10;4.10;;;;;;;19.64;80.53;97406.39;107224;1276;25255;-84
2023/08/05 01:17:43;;;;;;;8.50;4.00;;;;;;;19.63;81.03;97410.30;107219;1276;24219;-84
2023/08/05 01:20:15;;;;;;;7.20;4.40;;;;;;;19.57;81.07;97408.73;107216;1276;22531;-83
2023/08/05 01:22:43;;;;;;;6.00;4.00;;;;;;;19.51;81.82;97401.55;107158;1276;24246;-84
2023/08/05 01:25:31;;;;;;;7.00;4.20;;;;;;;19.42;82.36;97395.18;107181;1276;22723;-84
2023/08/05 01:28:01;;;;;;;7.00;4.00;;;;;;;19.32;82.94;97400.73;107169;1276;24297;-85
2023/08/05 01:30:30;;;;;;;7.90;4.70;;;;;;;19.23;83.06;97404.36;107209;1276;24196;-84
2023/08/05 01:33:03;;;;;;;7.20;4.40;;;;;;;19.19;83.27;97404.91;107141;1276;26635;-84
2023/08/05 01:35:31;;;;;;;6.70;4.30;;;;;;;19.17;83.35;97401.67;107280;1276;22609;-84
2023/08/05 01:37:59;;;;;;;7.60;4.80;;;;;;;19.21;83.49;97398.38;107313;1276;22732;-84
2023/08/05 01:40:30;;;;;;;8.50;4.40;;;;;;;19.22;84.08;97391.06;106928;1276;22544;-83
2023/08/05 01:42:58;;;;;;;7.00;4.40;;;;;;;19.18;83.94;97391.63;107263;1276;25358;-82
2023/08/05 01:45:26;;;;;;;6.90;4.80;;;;;;;19.20;83.76;97390.02;107282;1276;22557;-83
2023/08/05 01:47:54;;;;;;;6.10;4.20;;;;;;;19.23;83.75;97386.47;106957;1276;22542;-85
2023/08/05 01:50:23;;;;;;;6.40;4.30;;;;;;;19.25;83.47;97383.85;106899;1276;23793;-83
2023/08/05 01:52:53;;;;;;;5.80;4.30;;;;;;;19.32;83.64;97389.02;107254;1276;25098;-84
2023/08/05 01:55:21;;;;;;;7.10;4.90;;;;;;;19.39;83.75;97382.33;107330;1276;22606;-85
2023/08/05 01:57:50;;;;;;;8.50;4.60;;;;;;;19.41;83.69;97378.07;107254;1276;24242;-84
2023/08/05 02:00:20;;;;;;;6.60;3.90;;;;;;;19.40;83.51;97379.16;106972;1276;22543;-83
2023/08/05 02:02:48;;;;;;;8.40;4.50;;;;;;;19.39;83.49;97380.37;107459;1276;22520;-83
2023/08/05 02:05:17;;;;;;;5.70;4.10;;;;;;;19.36;83.30;97385.25;107192;1276;24267;-85
2023/08/05 02:07:45;;;;;;;10.90;5.60;;;;;;;19.36;83.35;97387.91;107160;1267;25346;-84
2023/08/05 02:10:13;;;;;;;9.70;4.40;;;;;;;19.38;83.42;97380.59;106946;1276;22685;-83
2023/08/05 02:12:41;;;;;;;8.40;4.20;;;;;;;19.32;83.78;97371.55;106824;1276;22880;-79
2023/08/05 02:15:10;;;;;;;6.10;4.10;;;;;;;19.26;83.60;97370.52;106855;1276;22521;-80
2023/08/05 02:17:38;;;;;;;6.70;4.50;;;;;;;19.21;83.57;97369.66;107134;1276;23894;-80
2023/08/05 02:20:08;;;;;;;5.50;4.40;;;;;;;19.17;83.35;97371.86;107141;1276;22782;-80
2023/08/05 02:22:36;;;;;;;7.10;4.20;;;;;;;19.11;83.26;97374.42;107092;1276;22521;-80
2023/08/05 02:25:04;;;;;;;11.50;4.90;;;;;;;19.11;83.51;97371.30;107122;1276;22911;-80
2023/08/05 02:27:32;;;;;;;6.80;4.30;;;;;;;19.12;83.58;97368.76;107094;1276;22524;-80
2023/08/05 02:30:00;;;;;;;5.50;4.00;;;;;;;19.15;83.59;97364.81;107161;1276;23922;-80
2023/08/05 02:32:28;;;;;;;7.70;4.30;;;;;;;19.22;83.67;97363.12;107070;1276;26267;-80
2023/08/05 02:34:57;;;;;;;7.70;4.80;;;;;;;19.23;83.30;97357.21;107158;1276;24199;-80
2023/08/05 02:37:25;;;;;;;7.00;4.90;;;;;;;19.20;83.12;97366.07;107215;1276;23298;-80
2023/08/05 02:39:55;;;;;;;6.90;4.00;;;;;;;19.18;83.38;97370.41;107133;1276;25262;-80
2023/08/05 02:42:23;;;;;;;8.00;4.10;;;;;;;19.19;83.25;97369.48;107149;1276;25332;-79
2023/08/05 02:44:51;;;;;;;6.60;3.90;;;;;;;19.20;83.31;97367.38;107180;1276;24223;-81
2023/08/05 02:47:21;;;;;;;8.80;4.20;;;;;;;19.22;83.47;97359.45;106989;1276;22541;-79
2023/08/05 02:49:50;;;;;;;6.90;4.30;;;;;;;19.25;83.36;97352.48;106924;1276;22640;-80
2023/08/05 02:52:18;;;;;;;7.30;3.90;;;;;;;19.23;83.31;97347.23;107191;1276;25333;-80
2023/08/05 02:54:46;;;;;;;7.70;4.30;;;;;;;19.19;83.27;97349.89;106863;1276;22651;-80
2023/08/05 02:57:14;;;;;;;6.90;4.10;;;;;;;19.14;83.24;97356.29;107142;1276;25636;-79
2023/08/05 02:59:42;;;;;;;7.40;4.80;;;;;;;19.10;83.39;97355.30;107169;1276;22533;-80
2023/08/05 03:02:10;;;;;;;5.90;3.80;;;;;;;19.09;83.40;97358.72;106872;1276;25108;-79
2023/08/05 03:04:38;;;;;;;6.60;3.90;;;;;;;19.09;83.42;97359.33;107203;1276;22591;-79
2023/08/05 03:07:07;;;;;;;6.10;3.80;;;;;;;19.09;83.43;97367.30;107169;1276;22534;-79
2023/08/05 03:09:35;;;;;;;8.30;3.90;;;;;;;19.08;83.56;97368.70;107133;1276;23931;-79
2023/08/05 03:12:07;;;;;;;7.50;3.60;;;;;;;19.05;83.66;97379.03;107169;1276;22511;-78
2023/08/05 03:14:35;;;;;;;6.80;4.60;;;;;;;18.97;83.57;97397.16;106805;1276;24231;-78
2023/08/05 03:17:05;;;;;;;9.40;4.80;;;;;;;18.87;83.69;97420.08;107161;1276;22629;-79
2023/08/05 03:19:33;;;;;;;7.20;3.60;;;;;;;18.77;84.17;97433.02;107132;1276;24190;-79
2023/08/05 03:22:02;;;;;;;7.40;4.70;;;;;;;18.72;85.25;97437.73;107032;1254;22540;-79
2023/08/05 03:24:32;;;;;;;7.90;4.60;;;;;;;18.66;86.17;97429.67;107197;1276;22525;-79
2023/08/05 03:27:00;;;;;;;7.70;4.60;;;;;;;18.58;88.45;97419.95;107103;1276;23052;-79
2023/08/05 03:29:29;;;;;;;7.10;4.50;;;;;;;18.47;88.13;97404.48;107072;1276;22628;-79
2023/08/05 03:31:57;;;;;;;6.50;4.20;;;;;;;18.41;87.63;97407.88;106939;1276;25334;-79
2023/08/05 03:34:25;;;;;;;8.10;4.60;;;;;;;18.42;87.96;97415.98;107200;1276;22613;-79
2023/08/05 03:36:55;;;;;;;10.10;4.70;;;;;;;18.37;87.35;97431.89;106813;1276;25454;-79
2023/08/05 03:39:23;;;;;;;8.30;5.50;;;;;;;18.30;87.34;97426.69;107314;1276;22535;-79
2023/08/05 03:41:53;;;;;;;9.10;5.00;;;;;;;18.25;87.67;97423.55;107169;1276;22536;-79
2023/08/05 03:44:21;;;;;;;10.70;4.70;;;;;;;18.24;87.95;97427.73;106903;1276;22527;-79
2023/08/05 03:46:49;;;;;;;10.30;4.70;;;;;;;18.21;88.37;97435.39;107149;1276;25285;-78
2023/08/05 03:49:18;;;;;;;6.50;4.30;;;;;;;18.20;89.26;97458.66;107075;1276;25456;-80
2023/08/05 03:51:46;;;;;;;9.80;4.90;;;;;;;18.21;89.59;97480.98;107319;1276;22562;-79
2023/08/05 03:54:15;;;;;;;7.60;4.70;;;;;;;18.23;89.43;97493.41;107391;1273;22529;-80
2023/08/05 03:56:43;;;;;;;7.40;4.70;;;;;;;18.20;89.56;97473.95;107187;1276;22555;-82
2023/08/05 03:59:11;;;;;;;8.40;4.70;;;;;;;18.19;90.10;97454.43;107215;1276;22542;-80
2023/08/05 04:01:41;;;;;;;7.30;5.00;;;;;;;18.17;89.59;97461.66;106788;1276;22524;-80
2023/08/05 04:04:09;;;;;;;7.90;4.30;;;;;;;18.10;91.05;97445.55;106701;1276;22530;-80
2023/08/05 04:06:37;;;;;;;9.00;5.00;;;;;;;18.05;92.75;97443.80;106805;1276;22529;-78
2023/08/05 04:09:06;;;;;;;8.80;4.80;;;;;;;18.04;91.58;97455.86;106782;1276;22534;-81
2023/08/05 04:11:35;;;;;;;5.50;3.80;;;;;;;18.06;91.33;97454.65;106862;1269;22662;-80
2023/08/05 04:14:05;;;;;;;6.90;4.50;;;;;;;18.12;91.54;97460.95;106782;1276;22612;-81
2023/08/05 04:16:34;;;;;;;6.80;4.10;;;;;;;18.13;90.91;97458.77;107148;1276;24275;-81
2023/08/05 04:19:03;;;;;;;6.50;4.60;;;;;;;18.10;90.59;97463.07;107168;1276;22578;-80
2023/08/05 04:21:39;;;;;;;7.40;4.30;;;;;;;18.09;90.94;97462.52;106979;1276;22633;-80
2023/08/05 04:24:09;;;;;;;7.20;4.30;;;;;;;18.08;91.23;97448.31;106785;1276;22598;-79
2023/08/05 04:26:37;;;;;;;8.50;4.00;;;;;;;18.07;91.82;97433.88;107086;1276;22615;-80
2023/08/05 04:29:05;;;;;;;11.00;4.70;;;;;;;18.11;92.07;97424.61;107148;1276;23500;-80
2023/08/05 04:31:34;;;;;;;6.40;4.40;;;;;;;18.07;91.85;97417.61;106834;1276;22521;-80
2023/08/05 04:34:02;;;;;;;6.20;3.60;;;;;;;17.99;91.88;97401.55;107202;1276;22601;-80
2023/08/05 04:36:31;;;;;;;6.80;4.60;;;;;;;17.94;92.93;97396.61;107207;1276;24250;-81
2023/08/05 04:39:02;;;;;;;6.40;3.90;;;;;;;17.88;93.86;97390.97;106828;1276;22529;-80
2023/08/05 04:41:30;;;;;;;5.70;4.10;;;;;;;17.85;93.95;97383.20;106801;1276;24381;-80
2023/08/05 04:43:58;;;;;;;6.80;4.10;;;;;;;17.85;93.74;97369.88;107188;1276;22535;-80
2023/08/05 04:46:26;;;;;;;6.70;4.70;;;;;;;17.79;94.55;97363.06;107214;1256;22541;-80
2023/08/05 04:48:55;;;;;;;6.40;4.80;;;;;;;17.78;94.65;97365.15;106905;1276;24534;-80
2023/08/05 04:51:23;;;;;;;5.50;4.20;;;;;;;17.78;94.88;97358.46;107184;1259;22524;-80
2023/08/05 04:53:51;;;;;;;5.70;4.00;;;;;;;17.76;94.77;97355.59;107122;1276;23987;-79
2023/08/05 04:56:25;;;;;;;8.80;5.00;;;;;;;17.72;95.56;97356.77;106827;1276;25648;-78
2023/08/05 04:58:53;;;;;;;5.20;4.10;;;;;;;17.69;95.21;97361.45;106832;1276;24316;-80
2023/08/05 05:01:21;;;;;;;5.90;3.50;;;;;;;17.66;95.15;97360.30;107169;1276;22529;-79
2023/08/05 05:03:51;;;;;;;9.40;4.50;;;;;;;17.65;94.82;97366.20;106888;1276;25383;-79
2023/08/05 05:06:19;;;;;;;7.10;4.10;;;;;;;17.67;94.75;97364.44;107261;1276;23030;-79
2023/08/05 05:08:48;;;;;;;6.30;4.30;;;;;;;17.67;94.48;97371.52;106557;1276;22540;-80
2023/08/05 05:11:16;;;;;;;7.30;4.30;;;;;;;17.67;94.44;97374.95;107195;1276;24269;-80
2023/08/05 05:13:46;;;;;;;5.60;3.70;;;;;;;17.64;94.37;97365.48;107156;1276;24256;-80
2023/08/05 05:16:14;;;;;;;6.30;4.30;;;;;;;17.66;94.91;97371.59;107195;1276;22540;-80
2023/08/05 05:18:42;;;;;;;5.20;4.20;;;;;;;17.67;95.05;97374.02;107149;1276;22865;-80
2023/08/05 05:21:10;;;;;;;5.00;3.50;;;;;;;17.68;94.79;97377.84;107148;1276;25393;-79
2023/08/05 05:23:38;;;;;;;7.90;3.70;;;;;;;17.66;94.75;97390.34;107104;1276;25529;-80
2023/08/05 05:26:07;;;;;;;5.90;4.00;;;;;;;17.68;95.24;97396.05;107205;1276;22534;-79
2023/08/05 05:28:35;;;;;;;6.30;3.50;;;;;;;17.75;95.37;97388.67;107206;1276;24196;-80
2023/08/05 05:31:03;;;;;;;5.60;3.40;;;;;;;17.79;95.11;97377.16;106551;1276;23156;-79
2023/08/05 05:33:31;;;;;;;7.60;3.80;;;;;;;17.84;95.20;97366.28;106833;1266;22531;-79
2023/08/05 05:35:59;;;;;;;5.30;3.90;;;;;;;17.88;95.85;97341.30;106856;1276;25472;-80
2023/08/05 05:38:27;;;;;;;6.50;4.40;;;;;;;17.89;95.31;97331.88;107167;1275;22533;-80
2023/08/05 05:40:55;;;;;;;5.40;3.30;;;;;;;17.83;95.32;97326.00;107187;1276;25519;-80
2023/08/05 05:43:23;;;;;;;5.70;3.50;;;;;;;17.75;95.98;97322.80;107182;1276;24368;-80
2023/08/05 05:45:52;;;;;;;5.50;3.50;;;;;;;17.63;97.77;97324.10;107199;1276;24198;-80
2023/08/05 05:48:21;;;;;;;5.30;3.70;;;;;;;17.49;97.41;97330.13;106860;1276;24235;-80
2023/08/05 05:50:52;;;;;;;7.30;3.80;;;;;;;17.44;96.92;97334.02;107175;1276;25538;-80
2023/08/05 05:53:21;;;;;;;5.00;3.70;;;;;;;17.45;96.59;97335.11;107237;1276;22683;-80
2023/08/05 05:55:53;;;;;;;7.00;3.50;;;;;;;17.45;96.69;97327.79;107242;1276;22549;-80
2023/08/05 05:58:21;;;;;;;5.60;3.40;;;;;;;17.51;97.74;97315.31;107322;1276;25338;-79
2023/08/05 06:00:54;;;;;;;6.40;3.70;;;;;;;17.58;98.60;97280.66;107166;1276;22603;-80
2023/08/05 06:03:23;;;;;;;6.10;3.90;;;;;;;17.58;99.80;97232.73;107266;1276;24233;-77
2023/08/05 06:05:51;;;;;;;6.40;3.60;;;;;;;17.46;100.00;97164.40;107234;1276;22700;-77
2023/08/05 06:08:19;;;;;;;8.70;4.60;;;;;;;17.23;100.00;97088.91;107188;1275;25315;-80
2023/08/05 06:10:47;;;;;;;8.00;4.40;;;;;;;17.06;100.00;97060.55;107229;1276;25390;-81
2023/08/05 06:13:16;;;;;;;7.90;4.70;;;;;;;16.97;100.00;97106.55;107247;1276;24228;-80
2023/08/05 06:15:44;;;;;;;5.50;4.10;;;;;;;16.96;100.00;97197.35;107200;1276;22530;-80
2023/08/05 06:18:13;;;;;;;6.80;4.80;;;;;;;17.02;100.00;97296.23;107197;1276;22943;-80
2023/08/05 06:20:41;;;;;;;10.80;5.10;;;;;;;17.06;100.00;97349.73;107236;1276;22558;-80
2023/08/05 06:23:09;;;;;;;6.80;4.20;;;;;;;17.08;100.00;97380.73;108190;1276;22611;-80
2023/08/05 06:25:37;;;;;;;8.50;5.10;;;;;;;17.08;100.00;97397.70;109378;1276;23071;-80
2023/08/05 06:28:06;;;;;;;6.20;4.10;;;;;;;17.09;100.00;97420.41;107279;1276;24200;-79
2023/08/05 06:30:34;;;;;;;6.60;4.30;;;;;;;17.11;100.00;97439.55;107203;1275;24179;-79
2023/08/05 06:33:02;;;;;;;6.90;4.00;;;;;;;17.11;100.00;97442.25;107242;1276;25278;-80
2023/08/05 06:35:34;;;;;;;7.40;4.60;;;;;;;17.07;100.00;97439.12;107251;1276;22529;-79
2023/08/05 06:38:02;;;;;;;9.20;4.30;;;;;;;17.04;100.00;97442.63;107123;1276;22554;-79
2023/08/05 06:40:30;;;;;;;5.50;4.00;;;;;;;17.05;100.00;97438.37;107209;1276;22639;-79
2023/08/05 06:42:58;;;;;;;5.70;4.20;;;;;;;17.07;100.00;97438.96;107215;1276;24776;-79
2023/08/05 06:45:26;;;;;;;6.90;4.80;;;;;;;17.10;100.00;97430.56;107242;1276;22521;-80
2023/08/05 06:47:54;;;;;;;6.40;4.20;;;;;;;17.10;100.00;97410.50;107193;1276;22520;-79
2023/08/05 06:50:22;;;;;;;5.70;3.90;;;;;;;17.12;100.00;97372.11;107168;1276;25223;-80
2023/08/05 06:52:50;;;;;;;6.30;4.70;;;;;;;17.14;100.00;97315.23;107183;1276;22612;-80
2023/08/05 06:55:19;;;;;;;6.30;4.50;;;;;;;17.20;100.00;97231.41;107238;1276;24282;-80
2023/08/05 06:57:50;;;;;;;9.90;4.60;;;;;;;17.21;100.00;97156.23;107198;1269;23532;-80
2023/08/05 07:00:18;;;;;;;6.00;4.20;;;;;;;17.19;100.00;97062.24;107153;1269;22640;-82
2023/08/05 07:02:46;;;;;;;7.40;4.20;;;;;;;17.18;100.00;97007.40;106830;1276;22532;-80
2023/08/05 07:05:14;;;;;;;5.50;4.00;;;;;;;17.23;100.00;97038.11;106842;1276;25323;-79
2023/08/05 07:07:43;;;;;;;6.80;4.00;;;;;;;17.31;100.00;97059.40;107248;1276;23356;-81
2023/08/05 07:10:12;;;;;;;5.00;3.90;;;;;;;17.41;100.00;97046.11;106966;1276;25323;-80
2023/08/05 07:12:40;;;;;;;9.10;4.70;;;;;;;17.54;100.00;97001.90;107158;1276;22653;-80
2023/08/05 07:15:09;;;;;;;5.80;3.80;;;;;;;17.63;100.00;96908.80;107153;1269;22577;-81
2023/08/05 07:17:41;;;;;;;7.60;5.60;;;;;;;17.65;100.00;96880.17;107193;1276;22644;-83
2023/08/05 07:20:09;;;;;;;6.50;4.40;;;;;;;17.68;100.00;96911.81;107213;1276;25585;-81
2023/08/05 07:22:37;;;;;;;7.70;4.00;;;;;;;17.69;100.00;96949.12;107201;1276;22530;-81
2023/08/05 07:25:06;;;;;;;7.60;4.40;;;;;;;17.70;100.00;97003.69;107190;1276;24333;-80
2023/08/05 07:27:34;;;;;;;8.40;4.10;;;;;;;17.66;100.00;97014.23;107201;1268;22518;-80
2023/08/05 07:30:02;;;;;;;5.50;3.80;;;;;;;17.64;100.00;97015.05;107163;1269;22527;-81
2023/08/05 07:32:30;;;;;;;6.30;4.00;;;;;;;17.74;100.00;97023.30;107161;1269;22780;-80
2023/08/05 07:34:59;;;;;;;7.60;3.70;;;;;;;17.81;100.00;97037.11;107150;1277;22646;-82
2023/08/05 07:37:29;;;;;;;6.50;4.20;;;;;;;17.92;100.00;97078.40;107180;1276;22580;-81
2023/08/05 07:39:57;;;;;;;6.90;3.90;;;;;;;18.06;100.00;97121.20;106816;1269;25342;-81
2023/08/05 07:42:27;;;;;;;6.00;3.70;;;;;;;18.13;100.00;97152.63;107106;1270;25233;-82
2023/08/05 07:44:55;;;;;;;6.20;3.90;;;;;;;18.21;100.00;97169.88;106826;1276;22517;-82
2023/08/05 07:47:23;;;;;;;7.70;4.30;;;;;;;18.24;100.00;97193.45;107162;1276;25325;-81
2023/08/05 07:49:51;;;;;;;5.50;3.70;;;;;;;18.27;100.00;97202.39;107127;1276;25315;-80
2023/08/05 07:52:21;;;;;;;9.60;4.30;;;;;;;18.30;100.00;97208.73;107143;1276;24540;-80
2023/08/05 07:54:50;;;;;;;6.30;3.90;;;;;;;18.32;100.00;97216.48;107159;1269;22522;-80
2023/08/05 07:57:18;;;;;;;6.70;4.60;;;;;;;18.34;100.00;97223.53;107154;1272;24352;-80
2023/08/05 07:59:46;;;;;;;6.90;4.00;;;;;;;18.35;100.00;97222.06;107194;1276;25616;-80
2023/08/05 08:02:14;;;;;;;5.70;3.90;;;;;;;18.34;100.00;97220.89;107180;1270;25350;-80
2023/08/05 08:04:44;;;;;;;7.00;4.30;;;;;;;18.29;100.00;97224.86;107138;1276;22577;-80
2023/08/05 08:07:12;;;;;;;7.50;4.40;;;;;;;18.25;100.00;97217.09;107101;1272;22526;-80
2023/08/05 08:09:40;;;;;;;7.80;4.60;;;;;;;18.22;100.00;97210.57;107170;1276;22518;-80
2023/08/05 08:12:08;;;;;;;8.20;5.20;;;;;;;18.24;100.00;97227.42;107127;1276;22515;-79
2023/08/05 08:14:36;;;;;;;7.20;4.80;;;;;;;18.22;100.00;97231.67;107216;1276;24759;-81
2023/08/05 08:17:04;;;;;;;7.00;5.10;;;;;;;18.20;100.00;97226.80;107219;1276;25384;-80
2023/08/05 08:19:32;;;;;;;7.80;4.70;;;;;;;18.18;100.00;97219.07;107197;1273;22608;-80
2023/08/05 08:22:00;;;;;;;7.90;5.40;;;;;;;18.18;100.00;97221.48;107564;1269;23903;-81
2023/08/05 08:24:28;;;;;;;9.70;5.00;;;;;;;18.21;100.00;97216.46;107250;1276;25297;-81
2023/08/05 08:26:56;;;;;;;10.20;4.70;;;;;;;18.24;100.00;97212.07;107301;1276;25294;-81
2023/08/05 08:29:24;;;;;;;6.30;4.40;;;;;;;18.25;100.00;97209.29;107198;1276;23935;-81
2023/08/05 08:31:52;;;;;;;9.80;4.50;;;;;;;18.26;100.00;97207.35;107268;1276;22575;-81
2023/08/05 08:34:21;;;;;;;8.40;4.10;;;;;;;18.28;100.00;97214.94;107243;1272;24556;-83
2023/08/05 08:36:49;;;;;;;7.00;4.80;;;;;;;18.30;100.00;97221.45;107171;1269;25275;-81
2023/08/05 08:39:17;;;;;;;9.80;4.50;;;;;;;18.32;100.00;97222.11;107256;1276;24288;-79
2023/08/05 08:41:48;;;;;;;5.90;4.20;;;;;;;18.39;100.00;97223.29;107147;1269;22537;-81
2023/08/05 08:44:17;;;;;;;6.70;4.30;;;;;;;18.42;100.00;97227.16;107153;1276;25278;-80
2023/08/05 08:46:47;;;;;;;8.90;4.50;;;;;;;18.43;100.00;97237.62;107305;1276;25223;-80
2023/08/05 08:49:16;;;;;;;7.30;5.30;;;;;;;18.46;100.00;97242.96;107196;1276;24058;-80
2023/08/05 08:51:48;;;;;;;8.40;5.30;;;;;;;18.48;100.00;97239.17;107206;1276;22520;-80
2023/08/05 08:54:20;;;;;;;7.10;4.30;;;;;;;18.49;100.00;97233.13;106814;1276;24327;-80
2023/08/05 08:56:48;;;;;;;8.10;4.70;;;;;;;18.55;100.00;97232.10;106834;1276;22725;-80
2023/08/05 08:59:16;;;;;;;7.90;4.70;;;;;;;18.62;100.00;97227.45;106844;1276;24438;-80
2023/08/05 09:01:46;;;;;;;8.40;4.60;;;;;;;18.71;100.00;97225.65;107179;1276;22562;-80
2023/08/05 09:04:15;;;;;;;6.50;4.40;;;;;;;18.80;100.00;97221.98;107149;1276;22629;-81
2023/08/05 09:06:46;;;;;;;7.30;4.80;;;;;;;18.85;100.00;97220.95;107141;1276;23424;-81
2023/08/05 09:09:14;;;;;;;7.20;4.70;;;;;;;18.80;100.00;97217.23;107184;1276;22519;-81
2023/08/05 09:11:42;;;;;;;7.40;4.50;;;;;;;18.77;100.00;97218.64;107040;1269;23987;-81
2023/08/05 09:14:14;;;;;;;7.00;4.50;;;;;;;18.76;100.00;97211.78;107178;1276;23241;-81
2023/08/05 09:16:59;;;;;;;7.50;5.00;;;;;;;18.78;100.00;97208.06;107249;1276;22676;-80
2023/08/05 09:19:29;;;;;;;10.00;4.50;;;;;;;18.77;100.00;97195.03;107239;1276;22511;-81
2023/08/05 09:22:01;;;;;;;9.10;4.50;;;;;;;18.81;100.00;97191.02;107193;1253;22604;-80
2023/08/05 09:24:29;;;;;;;9.30;4.10;;;;;;;18.90;100.00;97200.10;107167;1257;23153;-80
2023/08/05 09:26:59;;;;;;;8.00;4.30;;;;;;;19.00;100.00;97197.35;107128;1276;25224;-80
2023/08/05 09:29:28;;;;;;;7.40;4.90;;;;;;;19.07;100.00;97192.05;107267;1253;24240;-79
2023/08/05 09:31:58;;;;;;;7.40;5.00;;;;;;;19.07;100.00;97194.79;107169;1253;24216;-80
2023/08/05 09:34:32;;;;;;;7.90;5.00;;;;;;;19.06;100.00;97195.33;107378;1276;22521;-80
2023/08/05 09:37:02;;;;;;;8.00;5.10;;;;;;;19.10;100.00;97196.14;107489;1276;24422;-80
2023/08/05 09:39:48;;;;;;;7.00;5.50;;;;;;;19.14;100.00;97201.98;107084;1276;22640;-79
2023/08/05 09:42:27;;;;;;;10.00;5.10;;;;;;;19.16;100.00;97196.23;107345;1276;22547;-82
2023/08/05 09:44:58;;;;;;;7.20;5.40;;;;;;;19.15;100.00;97182.32;107446;1276;22537;-80
2023/08/05 09:47:30;;;;;;;10.20;6.10;;;;;;;19.16;100.00;97180.23;107362;1276;24211;-80
2023/08/05 09:50:00;;;;;;;8.90;6.10;;;;;;;19.23;100.00;97172.81;107382;1276;25690;-80
2023/08/05 09:52:29;;;;;;;10.50;6.10;;;;;;;19.32;100.00;97170.71;107156;1276;22589;-79
2023/08/05 09:55:03;;;;;;;10.20;6.00;;;;;;;19.41;100.00;97166.92;107257;1276;22634;-80
2023/08/05 09:57:31;;;;;;;7.90;5.40;;;;;;;19.51;100.00;97165.86;107230;1276;24046;-80
2023/08/05 09:59:59;;;;;;;8.00;6.00;;;;;;;19.56;100.00;97161.30;106861;1276;23920;-82
2023/08/05 10:02:30;;;;;;;6.80;5.90;;;;;;;19.65;100.00;97164.77;107225;1276;24219;-80
2023/08/05 10:05:00;;;;;;;8.00;5.90;;;;;;;19.73;100.00;97167.80;107311;1276;25190;-80
2023/08/05 10:07:28;;;;;;;9.20;6.60;;;;;;;19.82;100.00;97175.70;107185;1276;25284;-80
2023/08/05 10:09:58;;;;;;;10.90;6.90;;;;;;;19.88;100.00;97168.26;106867;1276;22525;-81
2023/08/05 10:12:30;;;;;;;8.40;6.20;;;;;;;19.97;100.00;97166.37;106988;1276;24377;-80
2023/08/05 10:15:00;;;;;;;10.80;5.70;;;;;;;20.10;100.00;97168.67;106670;1276;22567;-81
2023/08/05 10:17:28;;;;;;;8.70;5.70;;;;;;;20.21;100.00;97163.29;107240;1276;22530;-80
2023/08/05 10:19:59;;;;;;;7.10;5.80;;;;;;;20.29;100.00;97164.83;107200;1276;22535;-80
2023/08/05 10:22:27;;;;;;;8.20;6.30;;;;;;;20.41;100.00;97166.23;106984;1276;22534;-80
2023/08/05 10:24:58;;;;;;;7.70;6.10;;;;;;;20.51;100.00;97166.23;107177;1276;22535;-79
2023/08/05 10:27:33;;;;;;;6.40;5.70;;;;;;;20.47;100.00;97160.56;106834;1276;25329;-80
2023/08/05 10:30:08;;;;;;;7.60;5.20;;;;;;;20.38;100.00;97154.73;107123;1276;22643;-80
2023/08/05 10:32:56;;;;;;;6.30;5.60;;;;;;;20.35;100.00;97154.23;107141;1254;22668;-81
2023/08/05 10:35:40;;;;;;;7.70;5.60;;;;;;;20.41;100.00;97150.13;107247;1276;24341;-80
2023/08/05 10:38:16;;;;;;;11.10;5.80;;;;;;;20.49;99.94;97140.63;107198;1276;24265;-79
2023/08/05 10:40:47;;;;;;;9.10;5.60;;;;;;;20.51;99.95;97129.31;107203;1276;22596;-81
2023/08/05 10:43:31;;;;;;;7.00;5.40;;;;;;;20.56;99.59;97122.86;107188;1272;25643;-80
2023/08/05 10:45:59;;;;;;;7.40;5.50;;;;;;;20.67;100.00;97127.86;106881;1276;22652;-81
2023/08/05 10:48:29;;;;;;;7.00;4.80;;;;;;;20.85;100.00;97126.61;107118;1276;25329;-81
2023/08/05 10:51:02;;;;;;;7.00;5.60;;;;;;;21.02;99.62;97120.88;107145;1276;23252;-81
2023/08/05 10:53:31;;;;;;;8.80;5.90;;;;;;;21.07;96.69;97117.44;107138;1276;25395;-79
2023/08/05 10:55:59;;;;;;;6.90;5.50;;;;;;;21.02;96.88;97112.98;107207;1276;25281;-80
2023/08/05 10:58:29;;;;;;;6.90;5.70;;;;;;;21.15;97.41;97108.32;107214;1276;22543;-80
2023/08/05 11:01:05;;;;;;;9.90;5.90;;;;;;;21.33;96.45;97105.31;107244;1276;25288;-79
2023/08/05 11:03:56;;;;;;;6.60;5.30;;;;;;;21.48;96.04;97107.40;107222;1276;23355;-78
2023/08/05 11:06:25;;;;;;;8.90;5.60;;;;;;;21.58;94.03;97105.27;106868;1276;24371;-79
2023/08/05 11:08:59;;;;;;;8.70;5.80;;;;;;;21.62;94.95;97103.58;106613;1275;22549;-80
2023/08/05 11:11:29;;;;;;;10.60;6.20;;;;;;;21.67;92.78;97109.29;107213;1276;23206;-79
2023/08/05 11:13:58;;;;;;;12.10;6.90;;;;;;;21.56;93.20;97112.73;107204;1276;22641;-80
2023/08/05 11:16:26;;;;;;;7.60;6.20;;;;;;;21.54;93.27;97120.31;107135;1276;24252;-80
2023/08/05 11:18:56;;;;;;;7.80;6.70;;;;;;;21.41;92.73;97121.70;106819;1276;26525;-81
2023/08/05 11:21:24;;;;;;;8.90;6.50;;;;;;;21.31;93.31;97115.17;106805;1276;22529;-79
2023/08/05 11:23:52;;;;;;;9.30;6.40;;;;;;;21.22;93.19;97108.95;107206;1276;23786;-80
2023/08/05 11:26:22;;;;;;;9.20;7.60;;;;;;;21.20;93.19;97110.67;107250;1276;22654;-79
2023/08/05 11:28:50;;;;;;;8.70;7.30;;;;;;;21.21;93.85;97100.89;106903;1276;22632;-80
2023/08/05 11:31:26;;;;;;;6.70;6.00;;;;;;;21.42;94.20;97094.77;106851;1276;22968;-79